Time;durP1;ratioP1;P1;durP2;ratioP2;P2;SDS_P1;SDS_P2;PMS_P1;PMS_P2;Temp;Humidity;BMP_temperature;BMP_pressure;BME280_temperature;BME280_humidity;BME280_pressure;Samples;Min_cycle;Max_cycle;Signal;HPM_P1;HPM_P2
2024/01/21 00:01:24;;;;;;;4.80;2.75;;;;;;;;;;5015503;28;20026;-85
2024/01/21 00:03:55;;;;;;;5.72;3.25;;;;;;;;;;5015656;28;20022;-84
2024/01/21 00:06:21;;;;;;;3.45;3.03;;;;;;;;;;5015467;28;20083;-85
2024/01/21 00:09:30;;;;;;;3.75;3.22;;;;;;;;;;5014843;28;20026;-86
2024/01/21 00:11:55;;;;;;;9.73;4.03;;;;;;;;;;5014344;28;20030;-86
2024/01/21 00:14:21;;;;;;;4.55;4.10;;;;;;;;;;5016499;28;20496;-87
2024/01/21 00:17:14;;;;;;;5.10;3.55;;;;;;;;;;5016602;28;20176;-86
2024/01/21 00:19:40;;;;;;;5.22;4.07;;;;;;;;;;5000375;28;20168;-86
2024/01/21 00:22:05;;;;;;;11.57;4.30;;;;;;;;;;5016427;28;20062;-86
2024/01/21 00:28:08;;;;;;;3.63;2.90;;;;;;;;;;4997141;28;20041;-86
2024/01/21 00:30:44;;;;;;;6.40;2.53;;;;;;;;;;5013325;28;20025;-85
2024/01/21 00:33:09;;;;;;;9.82;3.63;;;;;;;;;;5009158;28;20045;-84
2024/01/21 00:35:35;;;;;;;3.25;2.88;;;;;;;;;;5011498;28;20033;-83
2024/01/21 00:38:00;;;;;;;6.88;3.10;;;;;;;;;;5012262;28;20101;-84
2024/01/21 00:40:25;;;;;;;6.45;2.65;;;;;;;;;;5013057;28;20036;-84
2024/01/21 00:42:51;;;;;;;1.77;1.67;;;;;;;;;;5012383;28;20080;-84
2024/01/21 00:45:16;;;;;;;2.50;2.30;;;;;;;;;;5011639;28;20029;-84
2024/01/21 00:47:41;;;;;;;4.50;2.30;;;;;;;;;;5011430;28;20037;-83
2024/01/21 00:50:07;;;;;;;2.45;2.25;;;;;;;;;;5011612;28;20021;-86
2024/01/21 00:52:33;;;;;;;9.88;3.50;;;;;;;;;;5011546;28;20026;-84
2024/01/21 00:54:58;;;;;;;3.20;3.00;;;;;;;;;;5012316;28;20025;-84
2024/01/21 00:57:23;;;;;;;7.32;3.42;;;;;;;;;;5012578;28;20025;-85
2024/01/21 00:59:49;;;;;;;1.13;1.08;;;;;;;;;;5013273;28;20022;-84
2024/01/21 01:02:14;;;;;;;5.18;2.15;;;;;;;;;;5010606;28;20048;-84
2024/01/21 01:04:39;;;;;;;1.17;1.17;;;;;;;;;;5010751;28;20100;-84
2024/01/21 01:07:05;;;;;;;9.05;4.35;;;;;;;;;;5011484;28;20036;-84
2024/01/21 01:09:30;;;;;;;2.65;2.38;;;;;;;;;;5010383;28;20017;-84
2024/01/21 01:11:55;;;;;;;2.20;2.03;;;;;;;;;;5007674;28;20049;-85
2024/01/21 01:14:21;;;;;;;14.90;4.28;;;;;;;;;;5010984;28;20034;-84
2024/01/21 01:16:47;;;;;;;4.30;2.47;;;;;;;;;;5014381;28;20080;-82
2024/01/21 01:19:12;;;;;;;6.55;3.45;;;;;;;;;;5013059;28;20021;-84
2024/01/21 01:21:37;;;;;;;3.85;2.55;;;;;;;;;;5012888;28;20030;-84
2024/01/21 01:24:03;;;;;;;3.05;2.28;;;;;;;;;;5011392;28;20048;-84
2024/01/21 01:26:28;;;;;;;5.80;3.70;;;;;;;;;;5013345;28;20022;-85
2024/01/21 01:28:54;;;;;;;3.10;2.67;;;;;;;;;;5012048;28;20013;-85
2024/01/21 01:31:20;;;;;;;4.15;2.70;;;;;;;;;;5004337;28;20022;-84
2024/01/21 01:33:46;;;;;;;4.20;3.10;;;;;;;;;;5009964;28;20381;-86
2024/01/21 01:36:12;;;;;;;3.50;3.08;;;;;;;;;;5013153;28;20534;-85
2024/01/21 01:38:37;;;;;;;4.97;3.05;;;;;;;;;;5016373;28;20534;-84
2024/01/21 01:41:03;;;;;;;3.78;2.22;;;;;;;;;;5015426;28;20058;-84
2024/01/21 01:43:29;;;;;;;3.85;2.85;;;;;;;;;;5014310;28;20036;-84
2024/01/21 01:45:54;;;;;;;6.22;2.58;;;;;;;;;;5016920;28;20030;-84
2024/01/21 01:48:22;;;;;;;6.35;3.00;;;;;;;;;;5014186;28;20018;-85
2024/01/21 01:50:48;;;;;;;3.80;2.38;;;;;;;;;;5018113;28;20029;-86
2024/01/21 01:53:14;;;;;;;3.00;2.28;;;;;;;;;;5017978;28;20041;-84
2024/01/21 01:55:39;;;;;;;3.50;2.83;;;;;;;;;;5018570;28;20120;-84
2024/01/21 01:58:05;;;;;;;4.28;2.25;;;;;;;;;;5019630;28;20076;-84
2024/01/21 02:00:30;;;;;;;6.93;3.35;;;;;;;;;;5017895;28;20041;-84
2024/01/21 02:02:56;;;;;;;3.55;2.53;;;;;;;;;;5014878;28;20387;-85
2024/01/21 02:05:22;;;;;;;5.68;2.80;;;;;;;;;;5018860;28;20030;-84
2024/01/21 02:07:47;;;;;;;4.65;2.85;;;;;;;;;;5020869;28;20096;-84
2024/01/21 02:10:13;;;;;;;3.47;3.15;;;;;;;;;;5020991;28;20029;-84
2024/01/21 02:12:44;;;;;;;5.93;3.22;;;;;;;;;;5031367;28;20021;-83
2024/01/21 02:15:12;;;;;;;2.50;1.98;;;;;;;;;;5017672;28;20049;-85
2024/01/21 02:17:37;;;;;;;2.42;2.28;;;;;;;;;;5019803;28;20488;-84
2024/01/21 02:20:03;;;;;;;6.75;2.80;;;;;;;;;;5018191;28;20057;-86
2024/01/21 02:22:30;;;;;;;4.15;2.65;;;;;;;;;;5016703;28;20065;-86
2024/01/21 02:24:55;;;;;;;4.45;2.75;;;;;;;;;;5020325;28;20033;-87
2024/01/21 02:27:21;;;;;;;3.83;3.03;;;;;;;;;;5022459;28;20399;-86
2024/01/21 02:29:46;;;;;;;2.90;2.42;;;;;;;;;;5015431;28;20026;-83
2024/01/21 02:32:11;;;;;;;3.55;3.13;;;;;;;;;;5016371;28;20026;-87
2024/01/21 02:34:37;;;;;;;4.80;3.75;;;;;;;;;;5015283;28;20073;-85
2024/01/21 02:37:02;;;;;;;2.05;1.95;;;;;;;;;;5017499;28;20038;-85
2024/01/21 02:39:27;;;;;;;5.00;2.08;;;;;;;;;;5016707;28;20033;-84
2024/01/21 02:41:53;;;;;;;7.88;2.45;;;;;;;;;;5017925;28;20476;-85
2024/01/21 02:44:18;;;;;;;2.88;2.67;;;;;;;;;;5017841;28;20030;-85
2024/01/21 02:46:43;;;;;;;2.72;2.53;;;;;;;;;;5026254;28;20010;-84
2024/01/21 02:49:09;;;;;;;3.80;1.75;;;;;;;;;;5033704;28;20014;-81
2024/01/21 02:51:34;;;;;;;2.92;2.72;;;;;;;;;;5035267;28;20084;-82
2024/01/21 02:53:59;;;;;;;10.82;3.15;;;;;;;;;;5018827;28;20452;-84
2024/01/21 02:56:29;;;;;;;7.47;3.58;;;;;;;;;;5018722;28;20383;-85
2024/01/21 02:58:54;;;;;;;2.00;1.90;;;;;;;;;;5013972;28;20026;-85
2024/01/21 03:01:20;;;;;;;4.57;3.22;;;;;;;;;;5015309;28;20060;-83
2024/01/21 03:03:46;;;;;;;4.20;3.38;;;;;;;;;;5015300;28;20026;-85
2024/01/21 03:06:12;;;;;;;4.47;4.07;;;;;;;;;;5016444;28;20143;-86
2024/01/21 03:08:37;;;;;;;3.15;2.83;;;;;;;;;;5015217;28;20037;-85
2024/01/21 03:11:03;;;;;;;3.30;1.52;;;;;;;;;;5015002;28;20045;-86
2024/01/21 03:13:29;;;;;;;5.75;3.05;;;;;;;;;;5014453;28;20383;-84
2024/01/21 03:15:55;;;;;;;4.05;2.75;;;;;;;;;;5014873;28;21204;-85
2024/01/21 03:18:20;;;;;;;3.40;2.47;;;;;;;;;;5012355;28;20025;-85
2024/01/21 03:20:46;;;;;;;3.95;3.58;;;;;;;;;;5015004;28;20030;-84
2024/01/21 03:23:11;;;;;;;2.58;1.92;;;;;;;;;;5014435;28;20046;-86
2024/01/21 03:25:37;;;;;;;3.00;2.67;;;;;;;;;;5013748;28;20097;-85
2024/01/21 03:28:03;;;;;;;6.65;2.50;;;;;;;;;;5010229;28;20081;-84
2024/01/21 03:30:28;;;;;;;3.13;2.92;;;;;;;;;;5013527;28;20492;-84
2024/01/21 03:32:54;;;;;;;5.07;3.17;;;;;;;;;;5011333;28;20125;-84
2024/01/21 03:35:19;;;;;;;2.38;1.85;;;;;;;;;;5015313;28;20033;-84
2024/01/21 03:37:44;;;;;;;2.78;2.58;;;;;;;;;;5014852;28;20048;-84
2024/01/21 03:40:10;;;;;;;5.25;1.85;;;;;;;;;;5016563;28;20022;-87
2024/01/21 03:42:35;;;;;;;4.82;2.75;;;;;;;;;;5015538;28;20030;-84
2024/01/21 03:45:00;;;;;;;4.15;3.30;;;;;;;;;;5016930;28;20471;-85
2024/01/21 03:47:26;;;;;;;2.80;1.83;;;;;;;;;;5016405;28;20041;-86
2024/01/21 03:49:51;;;;;;;1.92;1.83;;;;;;;;;;5014137;28;20480;-86
2024/01/21 03:52:17;;;;;;;3.03;2.78;;;;;;;;;;5014079;28;20440;-85
2024/01/21 03:54:42;;;;;;;2.75;1.85;;;;;;;;;;5013894;28;20026;-86
2024/01/21 03:57:08;;;;;;;1.73;1.63;;;;;;;;;;5016800;28;20046;-86
2024/01/21 03:59:33;;;;;;;6.15;1.83;;;;;;;;;;5012978;28;20396;-86
2024/01/21 04:01:59;;;;;;;2.38;2.25;;;;;;;;;;5014541;28;20030;-85
2024/01/21 04:04:24;;;;;;;2.72;1.83;;;;;;;;;;5014258;28;20033;-86
2024/01/21 04:06:49;;;;;;;1.58;1.48;;;;;;;;;;5013129;28;20057;-85
2024/01/21 04:09:19;;;;;;;1.73;1.63;;;;;;;;;;5014506;28;20050;-87
2024/01/21 04:11:45;;;;;;;2.05;1.95;;;;;;;;;;5014520;28;20037;-86
2024/01/21 04:14:10;;;;;;;2.13;1.92;;;;;;;;;;5015871;28;20029;-85
2024/01/21 04:16:35;;;;;;;1.77;1.67;;;;;;;;;;5013931;28;20043;-85
2024/01/21 04:19:01;;;;;;;2.85;2.20;;;;;;;;;;5014068;28;20407;-85
2024/01/21 04:21:26;;;;;;;2.35;1.83;;;;;;;;;;5014801;28;20140;-85
2024/01/21 04:23:51;;;;;;;16.08;4.57;;;;;;;;;;5012378;28;20028;-86
2024/01/21 04:26:17;;;;;;;3.78;3.35;;;;;;;;;;5014150;28;20040;-85
2024/01/21 04:28:42;;;;;;;7.05;1.92;;;;;;;;;;5013635;28;20022;-86
2024/01/21 04:31:07;;;;;;;3.55;2.35;;;;;;;;;;5016665;28;20159;-85
2024/01/21 04:33:32;;;;;;;1.95;1.83;;;;;;;;;;5014603;28;20217;-85
2024/01/21 04:35:58;;;;;;;2.47;1.98;;;;;;;;;;5015123;28;20468;-84
2024/01/21 04:38:25;;;;;;;1.75;1.65;;;;;;;;;;5015338;28;20026;-87
2024/01/21 04:40:52;;;;;;;1.95;1.80;;;;;;;;;;5016568;28;20511;-86
2024/01/21 04:43:18;;;;;;;5.75;2.05;;;;;;;;;;5016366;28;20607;-85
2024/01/21 04:45:43;;;;;;;5.82;2.35;;;;;;;;;;5014628;28;20650;-85
2024/01/21 04:48:08;;;;;;;2.95;2.75;;;;;;;;;;5015940;28;20051;-87
2024/01/21 04:50:34;;;;;;;3.88;3.53;;;;;;;;;;5015177;28;20026;-85
2024/01/21 04:52:59;;;;;;;2.85;2.33;;;;;;;;;;5014371;28;20037;-86
2024/01/21 04:55:24;;;;;;;6.15;2.72;;;;;;;;;;5017213;28;20388;-87
2024/01/21 04:57:49;;;;;;;9.32;3.20;;;;;;;;;;5016871;28;20628;-87
2024/01/21 05:00:15;;;;;;;4.07;3.22;;;;;;;;;;5018390;28;20041;-85
2024/01/21 05:02:41;;;;;;;2.53;2.33;;;;;;;;;;5017399;28;20029;-87
2024/01/21 05:05:06;;;;;;;2.67;2.47;;;;;;;;;;5017627;28;20117;-86
2024/01/21 05:07:31;;;;;;;1.75;1.65;;;;;;;;;;5019291;28;20034;-85
2024/01/21 05:09:57;;;;;;;1.80;1.70;;;;;;;;;;5014925;28;20700;-86
2024/01/21 05:12:22;;;;;;;4.80;3.03;;;;;;;;;;5015016;28;20045;-84
2024/01/21 05:14:47;;;;;;;3.78;2.53;;;;;;;;;;5015881;28;20041;-86
2024/01/21 05:17:13;;;;;;;10.52;2.70;;;;;;;;;;5016122;28;20045;-86
2024/01/21 05:19:38;;;;;;;1.90;1.80;;;;;;;;;;5014680;28;20022;-85
2024/01/21 05:22:03;;;;;;;3.20;2.25;;;;;;;;;;5014877;28;20099;-85
2024/01/21 05:24:29;;;;;;;0.95;0.95;;;;;;;;;;5016601;28;20073;-85
2024/01/21 05:26:54;;;;;;;4.95;2.00;;;;;;;;;;5017080;28;20057;-84
2024/01/21 05:29:19;;;;;;;1.38;1.20;;;;;;;;;;5017728;28;20026;-85
2024/01/21 05:31:45;;;;;;;1.63;1.60;;;;;;;;;;5017389;28;20041;-85
2024/01/21 05:34:10;;;;;;;3.80;2.80;;;;;;;;;;5016305;28;20026;-85
2024/01/21 05:36:36;;;;;;;4.13;2.95;;;;;;;;;;5016671;28;20029;-86
2024/01/21 05:39:03;;;;;;;1.95;1.85;;;;;;;;;;5019048;28;20094;-87
2024/01/21 05:41:29;;;;;;;1.20;1.20;;;;;;;;;;5025482;28;20014;-84
2024/01/21 05:43:54;;;;;;;1.73;1.63;;;;;;;;;;5026071;28;20443;-85
2024/01/21 05:46:20;;;;;;;1.73;1.63;;;;;;;;;;5015944;28;20025;-86
2024/01/21 05:48:45;;;;;;;3.22;2.20;;;;;;;;;;5019781;28;20030;-86
2024/01/21 05:51:10;;;;;;;1.65;1.55;;;;;;;;;;5019435;28;20037;-86
2024/01/21 05:53:38;;;;;;;1.25;1.25;;;;;;;;;;5019677;28;20041;-85
2024/01/21 05:56:03;;;;;;;5.80;2.28;;;;;;;;;;5011932;28;20062;-86
2024/01/21 05:58:29;;;;;;;1.67;1.58;;;;;;;;;;5016240;28;20045;-85
2024/01/21 06:00:54;;;;;;;1.23;1.23;;;;;;;;;;5018160;28;20463;-86
2024/01/21 06:03:19;;;;;;;3.45;3.05;;;;;;;;;;5015360;28;20034;-86
2024/01/21 06:05:44;;;;;;;2.03;1.88;;;;;;;;;;5012655;28;20026;-84
2024/01/21 06:08:10;;;;;;;2.20;2.10;;;;;;;;;;5017894;28;20040;-87
2024/01/21 06:10:35;;;;;;;2.97;2.00;;;;;;;;;;5018183;28;20037;-85
2024/01/21 06:13:00;;;;;;;2.22;2.13;;;;;;;;;;5017116;28;20024;-87
2024/01/21 06:15:26;;;;;;;5.30;2.38;;;;;;;;;;5018175;28;20527;-86
2024/01/21 06:17:51;;;;;;;1.88;1.77;;;;;;;;;;5017338;28;20037;-87
2024/01/21 06:20:16;;;;;;;1.42;1.27;;;;;;;;;;5018915;28;20033;-88
2024/01/21 06:22:42;;;;;;;4.05;2.20;;;;;;;;;;5018397;28;20120;-86
2024/01/21 06:25:07;;;;;;;6.15;3.38;;;;;;;;;;5020524;28;20034;-87
2024/01/21 06:27:33;;;;;;;2.95;2.60;;;;;;;;;;5024318;28;20044;-87
2024/01/21 06:30:10;;;;;;;5.10;2.45;;;;;;;;;;5023285;28;20106;-85
2024/01/21 06:32:35;;;;;;;6.53;2.95;;;;;;;;;;5024412;28;20447;-86
2024/01/21 06:35:00;;;;;;;2.17;1.75;;;;;;;;;;5025070;28;20030;-86
2024/01/21 06:37:26;;;;;;;6.45;1.88;;;;;;;;;;5031586;28;20036;-85
2024/01/21 06:39:51;;;;;;;1.42;1.27;;;;;;;;;;5028696;28;20029;-84
2024/01/21 06:42:16;;;;;;;0.90;0.90;;;;;;;;;;5017797;28;20029;-86
2024/01/21 06:44:42;;;;;;;3.42;1.77;;;;;;;;;;5017741;28;20018;-85
2024/01/21 06:47:07;;;;;;;1.90;1.77;;;;;;;;;;5018516;28;20113;-86
2024/01/21 06:49:33;;;;;;;2.30;1.83;;;;;;;;;;5018943;28;20025;-86
2024/01/21 06:51:58;;;;;;;1.98;1.77;;;;;;;;;;5019622;28;20022;-86
2024/01/21 06:54:24;;;;;;;14.77;3.63;;;;;;;;;;5019460;28;20021;-85
2024/01/21 06:56:49;;;;;;;1.70;1.60;;;;;;;;;;5018927;28;20638;-85
2024/01/21 06:59:15;;;;;;;1.95;1.85;;;;;;;;;;5017468;28;20022;-85
2024/01/21 07:01:40;;;;;;;1.83;1.73;;;;;;;;;;5020067;28;20092;-86
2024/01/21 07:04:05;;;;;;;3.85;2.75;;;;;;;;;;5018907;28;20033;-86
2024/01/21 07:06:30;;;;;;;3.28;2.53;;;;;;;;;;5020154;28;20045;-86
2024/01/21 07:08:56;;;;;;;1.75;1.65;;;;;;;;;;5018198;28;20440;-85
2024/01/21 07:11:22;;;;;;;1.58;1.40;;;;;;;;;;5018167;28;20030;-86
2024/01/21 07:13:47;;;;;;;3.05;2.80;;;;;;;;;;5019334;28;20064;-85
2024/01/21 07:16:12;;;;;;;3.53;2.60;;;;;;;;;;5020268;28;20057;-85
2024/01/21 07:18:37;;;;;;;4.13;2.05;;;;;;;;;;5020551;28;20057;-86
2024/01/21 07:21:03;;;;;;;2.78;2.55;;;;;;;;;;5017641;28;20029;-85
2024/01/21 07:23:28;;;;;;;2.85;2.20;;;;;;;;;;5018603;28;20033;-87
2024/01/21 07:25:56;;;;;;;1.65;1.55;;;;;;;;;;5019723;28;20045;-87
2024/01/21 07:28:21;;;;;;;2.45;2.22;;;;;;;;;;5019853;28;20357;-85
2024/01/21 07:30:46;;;;;;;2.00;1.73;;;;;;;;;;5017358;28;20092;-85
2024/01/21 07:33:12;;;;;;;2.80;2.15;;;;;;;;;;5017525;28;20037;-85
2024/01/21 07:35:37;;;;;;;2.00;1.90;;;;;;;;;;5018607;28;20034;-85
2024/01/21 07:38:03;;;;;;;1.63;1.52;;;;;;;;;;5018673;28;20033;-86
2024/01/21 07:40:30;;;;;;;2.97;2.15;;;;;;;;;;5018151;28;20030;-85
2024/01/21 07:42:55;;;;;;;3.97;2.72;;;;;;;;;;5016941;28;20021;-86
2024/01/21 07:45:20;;;;;;;4.63;2.63;;;;;;;;;;5026417;28;20032;-85
2024/01/21 07:47:46;;;;;;;4.75;2.45;;;;;;;;;;5019567;28;20068;-85
2024/01/21 07:50:11;;;;;;;5.63;2.97;;;;;;;;;;5021535;28;20037;-85
2024/01/21 07:52:37;;;;;;;2.90;2.63;;;;;;;;;;5024085;28;20411;-85
2024/01/21 07:55:02;;;;;;;3.42;2.28;;;;;;;;;;5022178;28;20021;-86
2024/01/21 07:57:28;;;;;;;2.20;2.05;;;;;;;;;;5021602;28;20109;-85
2024/01/21 07:59:53;;;;;;;3.33;2.35;;;;;;;;;;5023159;28;20018;-85
2024/01/21 08:02:19;;;;;;;12.48;3.33;;;;;;;;;;5019681;28;20061;-85
2024/01/21 08:04:44;;;;;;;2.60;2.38;;;;;;;;;;5017358;28;20081;-85
2024/01/21 08:07:09;;;;;;;3.65;3.00;;;;;;;;;;5021524;28;20036;-86
2024/01/21 08:09:34;;;;;;;3.30;2.53;;;;;;;;;;5018309;28;20037;-86
2024/01/21 08:12:00;;;;;;;2.08;1.80;;;;;;;;;;5018838;28;20025;-86
2024/01/21 08:14:26;;;;;;;3.03;2.65;;;;;;;;;;5018961;28;20033;-86
2024/01/21 08:16:51;;;;;;;2.63;2.42;;;;;;;;;;5019425;28;20558;-85
2024/01/21 08:19:17;;;;;;;4.30;2.65;;;;;;;;;;5019068;28;20057;-85
2024/01/21 08:21:42;;;;;;;4.38;3.28;;;;;;;;;;5017715;28;20021;-86
2024/01/21 08:24:08;;;;;;;3.90;2.38;;;;;;;;;;5016610;28;20025;-85
2024/01/21 08:26:33;;;;;;;3.90;2.92;;;;;;;;;;5020490;28;20085;-86
2024/01/21 08:28:59;;;;;;;3.00;2.70;;;;;;;;;;5019746;28;20069;-86
2024/01/21 08:31:25;;;;;;;3.05;2.60;;;;;;;;;;5020078;28;20112;-86
2024/01/21 08:33:50;;;;;;;3.70;2.20;;;;;;;;;;5020045;28;20095;-85
2024/01/21 08:36:16;;;;;;;3.35;2.47;;;;;;;;;;5021202;28;20077;-84
2024/01/21 08:38:41;;;;;;;6.68;3.33;;;;;;;;;;5020537;28;20034;-86
2024/01/21 08:41:06;;;;;;;2.10;1.73;;;;;;;;;;5018310;28;20030;-84
2024/01/21 08:43:32;;;;;;;3.05;2.75;;;;;;;;;;5020263;28;20026;-84
2024/01/21 08:45:58;;;;;;;15.50;2.92;;;;;;;;;;5020962;28;20030;-87
2024/01/21 08:48:23;;;;;;;3.75;2.97;;;;;;;;;;5019775;28;20020;-85
2024/01/21 08:50:48;;;;;;;4.60;2.28;;;;;;;;;;5021577;28;20060;-85
2024/01/21 08:53:14;;;;;;;2.78;2.58;;;;;;;;;;5019430;28;20060;-85
2024/01/21 08:55:39;;;;;;;2.72;2.40;;;;;;;;;;5021068;28;20025;-86
2024/01/21 08:58:05;;;;;;;4.68;3.33;;;;;;;;;;5019912;28;20025;-85
2024/01/21 09:00:30;;;;;;;2.97;2.70;;;;;;;;;;5020871;28;20032;-85
2024/01/21 09:02:56;;;;;;;3.58;2.83;;;;;;;;;;5022344;28;20056;-84
2024/01/21 09:05:21;;;;;;;2.42;1.73;;;;;;;;;;5020100;28;20029;-85
2024/01/21 09:07:46;;;;;;;2.47;2.28;;;;;;;;;;5019368;28;20029;-84
2024/01/21 09:10:12;;;;;;;2.55;1.70;;;;;;;;;;5020672;28;20038;-85
2024/01/21 09:12:38;;;;;;;3.88;1.92;;;;;;;;;;5029801;28;20057;-85
2024/01/21 09:15:05;;;;;;;4.80;2.70;;;;;;;;;;5019430;28;20034;-84
2024/01/21 09:17:30;;;;;;;3.17;2.22;;;;;;;;;;5017125;28;20017;-86
2024/01/21 09:19:55;;;;;;;6.25;2.45;;;;;;;;;;5013280;28;20033;-84
2024/01/21 09:22:21;;;;;;;6.53;2.45;;;;;;;;;;5018178;28;20636;-86
2024/01/21 09:24:47;;;;;;;4.32;3.60;;;;;;;;;;5020774;28;20653;-83
2024/01/21 09:27:13;;;;;;;9.75;2.63;;;;;;;;;;5022418;28;20065;-86
2024/01/21 09:29:39;;;;;;;4.63;3.22;;;;;;;;;;5020036;28;20014;-85
2024/01/21 09:32:05;;;;;;;4.22;2.85;;;;;;;;;;5017254;28;20594;-84
2024/01/21 09:34:30;;;;;;;6.53;2.72;;;;;;;;;;5018787;28;20052;-85
2024/01/21 09:36:55;;;;;;;4.68;3.33;;;;;;;;;;5020540;28;20025;-85
2024/01/21 09:39:21;;;;;;;3.72;2.47;;;;;;;;;;5020011;28;20506;-85
2024/01/21 09:41:51;;;;;;;3.35;2.97;;;;;;;;;;5020501;28;20388;-87
2024/01/21 09:44:24;;;;;;;2.58;2.33;;;;;;;;;;5021413;28;20025;-86
2024/01/21 09:46:54;;;;;;;4.90;3.10;;;;;;;;;;5025365;28;20037;-87
2024/01/21 09:49:20;;;;;;;4.85;3.15;;;;;;;;;;5022904;28;20006;-85
2024/01/21 09:51:47;;;;;;;4.43;2.40;;;;;;;;;;5021651;28;20022;-85
2024/01/21 09:54:13;;;;;;;2.40;2.20;;;;;;;;;;5027801;28;20024;-86
2024/01/21 09:56:40;;;;;;;5.85;3.90;;;;;;;;;;5027957;28;20029;-85
2024/01/21 09:59:08;;;;;;;2.25;2.10;;;;;;;;;;5020896;28;20081;-88
2024/01/21 10:01:36;;;;;;;3.25;2.80;;;;;;;;;;5021164;28;20048;-86
2024/01/21 10:04:01;;;;;;;3.13;2.80;;;;;;;;;;5016825;28;20025;-87
2024/01/21 10:06:27;;;;;;;3.40;3.10;;;;;;;;;;5022484;28;20224;-86
2024/01/21 10:08:52;;;;;;;3.05;2.25;;;;;;;;;;5021494;28;20022;-87
2024/01/21 10:11:17;;;;;;;2.60;2.40;;;;;;;;;;5018959;28;20042;-86
2024/01/21 10:13:44;;;;;;;4.85;3.60;;;;;;;;;;5023155;28;20045;-86
2024/01/21 10:16:10;;;;;;;4.47;2.60;;;;;;;;;;5022429;28;20030;-86
2024/01/21 10:18:35;;;;;;;13.55;3.50;;;;;;;;;;5022089;28;20034;-86
2024/01/21 10:21:05;;;;;;;3.88;2.92;;;;;;;;;;5020993;28;20101;-87
2024/01/21 10:23:31;;;;;;;5.80;3.47;;;;;;;;;;5013986;28;20484;-87
2024/01/21 10:25:56;;;;;;;5.90;2.50;;;;;;;;;;5028638;28;20029;-87
2024/01/21 10:28:22;;;;;;;4.75;3.00;;;;;;;;;;5024089;28;20041;-87
2024/01/21 10:30:48;;;;;;;4.05;3.30;;;;;;;;;;5022576;28;20072;-86
2024/01/21 10:33:13;;;;;;;9.18;3.80;;;;;;;;;;5021889;28;20107;-86
2024/01/21 10:35:39;;;;;;;4.85;3.50;;;;;;;;;;5021147;28;20040;-85
2024/01/21 10:38:11;;;;;;;6.55;3.53;;;;;;;;;;5019147;28;20029;-85
2024/01/21 10:40:43;;;;;;;6.78;2.67;;;;;;;;;;5018308;28;20118;-87
2024/01/21 10:43:13;;;;;;;7.13;3.72;;;;;;;;;;5019533;28;20044;-85
2024/01/21 10:45:40;;;;;;;4.43;3.30;;;;;;;;;;5020787;28;20053;-85
2024/01/21 10:48:07;;;;;;;13.57;4.18;;;;;;;;;;5026360;28;20021;-85
2024/01/21 10:50:34;;;;;;;2.63;2.42;;;;;;;;;;5021469;28;20022;-87
2024/01/21 10:53:00;;;;;;;4.10;3.35;;;;;;;;;;5017772;28;20030;-85
2024/01/21 10:55:25;;;;;;;4.38;3.67;;;;;;;;;;5016787;28;20087;-87
2024/01/21 10:57:52;;;;;;;6.35;3.50;;;;;;;;;;5017110;28;20022;-85
2024/01/21 11:00:17;;;;;;;4.38;3.42;;;;;;;;;;5027793;28;20429;-87
2024/01/21 11:03:23;;;;;;;6.63;3.50;;;;;;;;;;5020929;28;20026;-86
2024/01/21 11:05:52;;;;;;;7.68;3.28;;;;;;;;;;5015392;28;20039;-85
2024/01/21 11:08:20;;;;;;;4.45;3.40;;;;;;;;;;5021273;28;20033;-88
2024/01/21 11:10:45;;;;;;;3.97;3.10;;;;;;;;;;5022407;28;20025;-86
2024/01/21 11:13:46;;;;;;;5.55;3.08;;;;;;;;;;5020362;28;20085;-86
2024/01/21 11:16:31;;;;;;;3.20;2.90;;;;;;;;;;5021853;28;20093;-86
2024/01/21 11:19:07;;;;;;;5.13;3.10;;;;;;;;;;5021971;28;20033;-86
2024/01/21 11:21:40;;;;;;;5.95;3.75;;;;;;;;;;5022511;28;20088;-86
2024/01/21 11:24:09;;;;;;;5.40;2.08;;;;;;;;;;5020844;28;20061;-85
2024/01/21 11:26:36;;;;;;;7.25;3.08;;;;;;;;;;5020603;28;20044;-86
2024/01/21 11:29:05;;;;;;;4.00;2.63;;;;;;;;;;5020752;28;20104;-86
2024/01/21 11:31:32;;;;;;;3.80;3.40;;;;;;;;;;5022103;28;20048;-86
2024/01/21 11:34:11;;;;;;;8.55;3.40;;;;;;;;;;5023740;28;20030;-86
2024/01/21 11:36:42;;;;;;;5.47;3.20;;;;;;;;;;5022697;28;20036;-85
2024/01/21 11:39:07;;;;;;;4.53;2.83;;;;;;;;;;5020932;28;20032;-85
2024/01/21 11:41:43;;;;;;;4.65;3.28;;;;;;;;;;5022009;28;20251;-84
2024/01/21 11:44:13;;;;;;;4.00;3.10;;;;;;;;;;5019972;28;20107;-86
2024/01/21 11:46:39;;;;;;;4.72;3.17;;;;;;;;;;5022087;28;20488;-87
2024/01/21 11:49:08;;;;;;;5.20;3.03;;;;;;;;;;5022238;28;20056;-86
2024/01/21 11:51:34;;;;;;;7.05;4.07;;;;;;;;;;5009152;28;20086;-87
2024/01/21 11:53:59;;;;;;;3.53;2.92;;;;;;;;;;5020340;28;20045;-86
2024/01/21 11:56:25;;;;;;;5.93;3.30;;;;;;;;;;5021488;28;20022;-87
2024/01/21 11:58:50;;;;;;;7.28;3.58;;;;;;;;;;5020518;28;20069;-88
2024/01/21 12:01:16;;;;;;;3.90;2.78;;;;;;;;;;5021810;28;20034;-87
2024/01/21 12:03:42;;;;;;;8.02;3.90;;;;;;;;;;5019709;28;20109;-85
2024/01/21 12:06:08;;;;;;;7.97;4.18;;;;;;;;;;5020899;28;20484;-85
2024/01/21 12:08:34;;;;;;;11.05;5.68;;;;;;;;;;5019080;28;20040;-86
2024/01/21 12:10:59;;;;;;;6.00;4.13;;;;;;;;;;5018745;28;20030;-87
2024/01/21 12:13:27;;;;;;;6.45;3.65;;;;;;;;;;5018829;28;20030;-85
2024/01/21 12:15:52;;;;;;;13.60;3.75;;;;;;;;;;5019568;28;20621;-85
2024/01/21 12:18:18;;;;;;;8.40;3.65;;;;;;;;;;5015980;28;20030;-86
2024/01/21 12:20:43;;;;;;;3.85;3.03;;;;;;;;;;5018626;28;20037;-85
2024/01/21 12:23:21;;;;;;;3.78;2.75;;;;;;;;;;5022805;28;20034;-85
2024/01/21 12:25:47;;;;;;;3.47;2.78;;;;;;;;;;5024339;28;20484;-86
2024/01/21 12:28:12;;;;;;;4.90;3.58;;;;;;;;;;5022721;28;20017;-85
2024/01/21 12:30:38;;;;;;;8.02;4.60;;;;;;;;;;5020843;28;20098;-85
2024/01/21 12:33:04;;;;;;;8.07;4.57;;;;;;;;;;5017337;28;20021;-86
2024/01/21 12:35:30;;;;;;;11.00;5.43;;;;;;;;;;5019987;28;20109;-86
2024/01/21 12:37:56;;;;;;;9.95;6.20;;;;;;;;;;5020153;28;20076;-86
2024/01/21 12:40:22;;;;;;;8.10;3.50;;;;;;;;;;5022583;28;20036;-87
2024/01/21 12:42:48;;;;;;;6.55;3.90;;;;;;;;;;5029584;28;20026;-87
2024/01/21 12:45:13;;;;;;;8.25;4.43;;;;;;;;;;5019515;28;20028;-86
2024/01/21 12:47:38;;;;;;;10.55;4.60;;;;;;;;;;5018971;28;20032;-86
2024/01/21 12:50:07;;;;;;;7.43;4.53;;;;;;;;;;5017598;28;20025;-86
2024/01/21 12:52:32;;;;;;;7.43;3.10;;;;;;;;;;5020160;28;20026;-86
2024/01/21 12:54:57;;;;;;;6.18;3.55;;;;;;;;;;5020815;28;20053;-86
2024/01/21 12:57:23;;;;;;;4.60;3.63;;;;;;;;;;5024559;28;20025;-87
2024/01/21 12:59:48;;;;;;;7.57;3.70;;;;;;;;;;5028402;28;20018;-86
2024/01/21 13:02:13;;;;;;;5.82;3.88;;;;;;;;;;5021048;28;20026;-86
2024/01/21 13:04:39;;;;;;;7.07;4.05;;;;;;;;;;5028190;28;20034;-84
2024/01/21 13:07:04;;;;;;;7.15;3.88;;;;;;;;;;5023805;28;20033;-86
2024/01/21 13:09:30;;;;;;;5.95;3.42;;;;;;;;;;5027932;28;20040;-86
2024/01/21 13:11:55;;;;;;;4.28;3.30;;;;;;;;;;5036118;28;20261;-86
2024/01/21 13:14:20;;;;;;;7.03;3.33;;;;;;;;;;5036573;28;20037;-87
2024/01/21 13:16:46;;;;;;;10.05;3.70;;;;;;;;;;5021553;28;20033;-87
2024/01/21 13:19:11;;;;;;;8.82;3.55;;;;;;;;;;5020050;28;20085;-87
2024/01/21 13:21:36;;;;;;;3.55;2.50;;;;;;;;;;5020590;28;20056;-86
2024/01/21 13:24:02;;;;;;;7.05;3.60;;;;;;;;;;5017334;28;20041;-88
2024/01/21 13:26:27;;;;;;;5.18;2.80;;;;;;;;;;5018375;28;20052;-86
2024/01/21 13:31:38;;;;;;;3.72;2.70;;;;;;;;;;5016436;28;20022;-86
2024/01/21 13:34:06;;;;;;;6.07;3.08;;;;;;;;;;5018441;28;20026;-86
2024/01/21 13:36:34;;;;;;;5.70;2.88;;;;;;;;;;5022697;28;20041;-85
2024/01/21 13:38:59;;;;;;;7.55;3.40;;;;;;;;;;5021989;28;20298;-86
2024/01/21 13:41:25;;;;;;;5.43;3.33;;;;;;;;;;5021418;28;20491;-89
2024/01/21 13:43:50;;;;;;;4.25;3.13;;;;;;;;;;5021246;28;20037;-88
2024/01/21 13:46:16;;;;;;;12.05;3.25;;;;;;;;;;5020500;28;20442;-88
2024/01/21 13:48:46;;;;;;;5.13;3.00;;;;;;;;;;5020341;28;20036;-87
2024/01/21 13:51:11;;;;;;;5.50;3.33;;;;;;;;;;5021108;28;20033;-87
2024/01/21 13:53:37;;;;;;;4.85;3.20;;;;;;;;;;5025770;28;20017;-87
2024/01/21 13:56:03;;;;;;;5.45;3.50;;;;;;;;;;5028591;28;20381;-88
2024/01/21 13:58:29;;;;;;;6.78;3.15;;;;;;;;;;5031398;28;20104;-86
2024/01/21 14:00:54;;;;;;;5.05;3.42;;;;;;;;;;5027420;28;20021;-85
2024/01/21 14:03:20;;;;;;;6.82;3.85;;;;;;;;;;5026047;28;20018;-85
2024/01/21 14:05:45;;;;;;;16.63;4.25;;;;;;;;;;5022933;28;20087;-86
2024/01/21 14:08:11;;;;;;;6.88;4.00;;;;;;;;;;5028987;28;20345;-88
2024/01/21 14:10:36;;;;;;;13.40;5.00;;;;;;;;;;5027247;28;20032;-85
2024/01/21 14:13:02;;;;;;;6.78;4.30;;;;;;;;;;5026598;28;20056;-88
2024/01/21 14:15:27;;;;;;;8.05;4.55;;;;;;;;;;5028651;28;20030;-88
2024/01/21 14:17:54;;;;;;;6.88;3.40;;;;;;;;;;5029726;28;20075;-88
2024/01/21 14:20:19;;;;;;;12.80;4.55;;;;;;;;;;5027775;28;20022;-85
2024/01/21 14:22:45;;;;;;;7.47;4.00;;;;;;;;;;5026655;28;20161;-86
2024/01/21 14:25:18;;;;;;;5.70;4.00;;;;;;;;;;5027794;28;20053;-90
2024/01/21 14:27:43;;;;;;;8.73;4.10;;;;;;;;;;5027715;28;20026;-85
2024/01/21 14:30:09;;;;;;;8.23;4.15;;;;;;;;;;5024665;28;20076;-86
2024/01/21 14:32:34;;;;;;;10.43;4.25;;;;;;;;;;5021129;28;20533;-86
2024/01/21 14:35:00;;;;;;;7.10;4.43;;;;;;;;;;5020779;28;20045;-88
2024/01/21 14:37:25;;;;;;;8.05;3.78;;;;;;;;;;5022291;28;20037;-85
2024/01/21 14:39:51;;;;;;;6.20;4.40;;;;;;;;;;5022402;28;20017;-86
2024/01/21 14:42:16;;;;;;;7.00;3.97;;;;;;;;;;5022212;28;20033;-88
2024/01/21 14:44:42;;;;;;;7.13;4.57;;;;;;;;;;5020125;28;20029;-85